createdAt,value
2018-06-04T05:19:07.590Z,96590.08
2018-06-04T05:24:02.171Z,96593.21
2018-06-04T05:28:56.740Z,96589.47
2018-06-04T05:33:51.471Z,96585.58
2018-06-04T05:38:46.139Z,96586.82
2018-06-04T05:43:40.787Z,96584.00
2018-06-04T05:48:35.333Z,96583.86
2018-06-04T05:53:36.633Z,96588.34
2018-06-04T05:58:31.146Z,96580.14
2018-06-04T06:03:25.698Z,96579.71
2018-06-04T06:08:20.268Z,96587.92
2018-06-04T06:13:14.810Z,96577.26
2018-06-04T06:18:09.410Z,96582.11
2018-06-04T06:23:04.011Z,96582.84
2018-06-04T06:27:58.606Z,96580.17
2018-06-04T06:32:53.160Z,96571.50
2018-06-04T06:37:47.734Z,96578.84
2018-06-04T06:42:42.292Z,96575.23
2018-06-04T06:47:36.827Z,96572.59
2018-06-04T06:52:31.417Z,96578.16
2018-06-04T06:57:25.917Z,96569.42
2018-06-04T07:02:20.752Z,96574.98
2018-06-04T07:07:15.306Z,96562.89
2018-06-04T07:12:09.853Z,96572.17
2018-06-04T07:17:04.425Z,96571.79
2018-06-04T07:21:58.977Z,96581.84
2018-06-04T07:26:53.233Z,96585.11
2018-06-04T07:31:47.780Z,96582.95
2018-06-04T07:36:42.327Z,96581.92
2018-06-04T07:41:36.926Z,96569.34
2018-06-04T07:46:31.587Z,96564.94
2018-06-04T07:51:26.166Z,96556.80
2018-06-04T07:56:20.701Z,96554.36
2018-06-04T08:01:15.280Z,96553.33
2018-06-04T08:06:09.883Z,96542.98
2018-06-04T08:11:04.471Z,96539.61
2018-06-04T08:15:59.055Z,96544.31
2018-06-04T08:20:53.607Z,96542.27
2018-06-04T08:25:48.150Z,96537.02
2018-06-04T08:30:42.724Z,96525.82
2018-06-04T08:35:37.280Z,96516.03
2018-06-04T08:40:31.827Z,96513.72
2018-06-04T08:45:26.361Z,96506.84
2018-06-04T08:50:20.926Z,96505.76
2018-06-04T09:00:12.339Z,96498.03
2018-06-04T09:05:06.923Z,96502.08
2018-06-04T09:10:01.474Z,96487.91
2018-06-04T09:14:56.060Z,96492.28
2018-06-04T09:19:50.642Z,96490.06
2018-06-04T09:24:45.219Z,96494.94
2018-06-04T09:29:39.820Z,96495.91
2018-06-04T09:34:35.418Z,96486.20
2018-06-04T09:39:30.011Z,96480.12
2018-06-04T09:44:24.645Z,96477.56
2018-06-04T09:49:19.183Z,96466.48
2018-06-04T09:54:13.839Z,96456.09
2018-06-04T09:59:08.394Z,96461.38
2018-06-04T10:04:03.094Z,96458.23
2018-06-04T10:08:57.632Z,96459.80
2018-06-04T10:13:52.203Z,96453.11
2018-06-04T10:18:47.354Z,96439.98
2018-06-04T10:23:41.964Z,96433.23
2018-06-04T10:28:36.491Z,96433.95
2018-06-04T10:33:31.054Z,96428.64
2018-06-04T10:38:25.613Z,96426.10
2018-06-04T10:43:20.154Z,96414.66
2018-06-04T10:48:14.705Z,96406.28
2018-06-04T10:53:09.283Z,96404.16
2018-06-04T10:58:03.859Z,96402.66
2018-06-04T11:02:58.404Z,96398.42
2018-06-04T11:07:52.978Z,96394.33
2018-06-04T11:12:47.587Z,96388.84
2018-06-04T11:17:42.383Z,96381.90
2018-06-04T11:22:36.943Z,96378.64
2018-06-04T11:27:31.495Z,96384.00
2018-06-04T11:32:26.088Z,96374.56
2018-06-04T11:37:20.663Z,96367.08
2018-06-04T11:42:15.240Z,96369.25
2018-06-04T11:47:09.796Z,96357.93
2018-06-04T11:52:04.423Z,96351.92
2018-06-04T11:56:59.003Z,96345.91
2018-06-04T12:01:53.585Z,96336.46
2018-06-04T12:06:48.145Z,96327.31
2018-06-04T12:11:42.707Z,96316.38
2018-06-04T12:16:37.277Z,96314.89
2018-06-04T12:21:31.862Z,96291.91
2018-06-04T12:26:26.425Z,96285.59
2018-06-04T12:31:20.995Z,96276.88
2018-06-04T12:36:15.567Z,96272.82
2018-06-04T12:41:10.226Z,96263.52
2018-06-04T12:46:04.916Z,96253.74
2018-06-04T12:50:59.510Z,96242.06
2018-06-04T12:55:54.069Z,96234.45
2018-06-04T13:00:48.594Z,96225.36
2018-06-04T13:05:43.204Z,96214.22
2018-06-04T13:10:37.780Z,96205.78
2018-06-04T13:15:32.418Z,96199.05
2018-06-04T13:20:27.033Z,96197.85
2018-06-04T13:25:21.637Z,96195.95
2018-06-04T13:30:16.215Z,96187.30
2018-06-04T13:35:10.786Z,96186.83
2018-06-04T13:40:05.038Z,96183.48
2018-06-04T13:44:59.632Z,96163.47
2018-06-04T13:49:54.215Z,96150.86
2018-06-04T13:54:48.462Z,96147.53
2018-06-04T13:59:43.048Z,96142.98
2018-06-04T14:04:37.579Z,96144.54
2018-06-04T14:09:32.163Z,96140.62
2018-06-04T14:14:26.785Z,96134.27
2018-06-04T14:19:21.346Z,96140.12
2018-06-04T14:24:15.635Z,96138.73
2018-06-04T14:29:10.182Z,96138.26
2018-06-04T14:34:04.785Z,96137.83
2018-06-04T14:38:59.437Z,96142.42
2018-06-04T14:43:53.999Z,96146.45
2018-06-04T14:48:48.571Z,96146.71
2018-06-04T14:53:42.861Z,96144.13
2018-06-04T14:58:37.379Z,96145.10
2018-06-04T15:03:31.942Z,96135.08
2018-06-04T15:08:26.498Z,96138.85
2018-06-04T15:13:21.074Z,96130.42
2018-06-04T15:18:15.680Z,96126.37
2018-06-04T15:23:10.218Z,96110.50
2018-06-04T15:28:04.487Z,96113.57
2018-06-04T15:32:59.086Z,96113.61
2018-06-04T15:37:53.754Z,96123.68
2018-06-04T15:42:48.311Z,96112.44
2018-06-04T15:47:42.874Z,96124.01
2018-06-04T15:52:37.455Z,96124.82
2018-06-04T15:57:32.021Z,96134.80
2018-06-04T16:02:26.596Z,96129.84
2018-06-04T16:07:21.163Z,96121.39
2018-06-04T16:12:15.757Z,96124.31
2018-06-04T16:17:10.314Z,96134.72
2018-06-04T16:22:04.913Z,96141.93
2018-06-04T16:26:59.398Z,96150.56
2018-06-04T16:31:53.951Z,96152.05
2018-06-04T16:36:48.555Z,96153.13
2018-06-04T16:41:43.137Z,96155.27
2018-06-04T16:46:37.681Z,96166.47
2018-06-04T16:51:32.259Z,96169.84
2018-06-04T16:56:26.891Z,96176.22
2018-06-04T17:01:21.495Z,96181.19
2018-06-04T17:06:16.081Z,96189.04
2018-06-04T17:11:10.619Z,96196.90
2018-06-04T17:16:05.867Z,96192.63
2018-06-04T17:21:00.424Z,96205.63
2018-06-04T17:25:54.979Z,96208.16
2018-06-04T17:30:49.600Z,96217.32
2018-06-04T17:35:44.152Z,96224.33
2018-06-04T17:40:38.710Z,96226.88
2018-06-04T17:45:33.274Z,96232.81
2018-06-04T17:50:27.839Z,96233.47
2018-06-04T17:55:22.419Z,96244.78
2018-06-04T18:00:17.026Z,96241.43
2018-06-04T18:05:11.607Z,96242.58
2018-06-04T18:10:06.276Z,96240.03
2018-06-04T18:15:00.878Z,96246.07
2018-06-04T18:19:55.524Z,96237.12
2018-06-04T18:24:50.121Z,96234.44
2018-06-04T18:29:44.722Z,96246.67
2018-06-04T18:34:39.330Z,96250.82
2018-06-04T18:39:33.955Z,96255.16
2018-06-04T18:44:28.574Z,96269.05
2018-06-04T18:49:23.071Z,96275.88
2018-06-04T18:54:17.719Z,96292.32
2018-06-04T18:59:12.305Z,96299.42
2018-06-04T19:04:06.937Z,96309.38
2018-06-04T19:09:01.623Z,96319.55
2018-06-04T19:13:56.099Z,96335.03
2018-06-04T19:18:50.720Z,96337.90
2018-06-04T19:23:45.316Z,96344.80
2018-06-04T19:28:39.931Z,96347.24
2018-06-04T19:33:34.548Z,96350.60
2018-06-04T19:38:29.167Z,96356.09
2018-06-04T19:43:23.738Z,96363.02
2018-06-04T19:48:18.357Z,96373.61
2018-06-04T19:53:12.926Z,96381.97
2018-06-04T19:58:07.514Z,96379.48
2018-06-04T20:03:02.165Z,96383.80
2018-06-04T20:07:56.708Z,96387.64
2018-06-04T20:12:51.292Z,96396.05
2018-06-04T20:17:45.819Z,96404.61
2018-06-04T20:22:40.414Z,96416.21
2018-06-04T20:27:34.978Z,96417.78
2018-06-04T20:32:29.560Z,96425.06
2018-06-04T20:37:24.117Z,96434.73
2018-06-04T20:42:18.729Z,96447.28
2018-06-04T20:47:13.347Z,96445.95
2018-06-04T20:52:08.036Z,96452.83
2018-06-04T20:57:02.622Z,96479.68
2018-06-04T21:01:57.218Z,96498.38
2018-06-04T21:06:51.794Z,96500.45
2018-06-04T21:11:46.404Z,96514.33
2018-06-04T21:16:40.971Z,96495.31
2018-06-04T21:21:35.512Z,96499.00
2018-06-04T21:26:30.277Z,96495.92
2018-06-04T21:31:24.840Z,96490.19
2018-06-04T21:36:19.406Z,96486.99
2018-06-04T21:41:14.000Z,96481.60
2018-06-04T21:46:08.225Z,96487.73
2018-06-04T21:51:02.796Z,96493.92
2018-06-04T21:55:57.062Z,96477.80
2018-06-04T22:00:51.769Z,96465.81
2018-06-04T22:05:46.346Z,96440.70
2018-06-04T22:10:40.949Z,96419.80
2018-06-04T22:15:35.560Z,96401.83
2018-06-04T22:20:30.163Z,96413.75
2018-06-04T22:25:24.747Z,96416.83
2018-06-04T22:30:19.302Z,96398.74
2018-06-04T22:35:13.838Z,96408.36
2018-06-04T22:40:08.407Z,96406.86
2018-06-04T22:45:02.970Z,96417.22
2018-06-04T22:49:57.550Z,96408.70
2018-06-04T22:54:52.140Z,96423.41
2018-06-04T22:59:46.697Z,96415.20
2018-06-04T23:04:41.241Z,96417.07
2018-06-04T23:09:35.778Z,96417.88
2018-06-04T23:14:30.298Z,96414.66
2018-06-04T23:19:24.876Z,96406.73
2018-06-04T23:24:19.453Z,96398.77
2018-06-04T23:29:13.958Z,96395.91
2018-06-04T23:34:08.514Z,96394.77
2018-06-04T23:39:03.124Z,96394.58
2018-06-04T23:43:57.731Z,96392.56
2018-06-04T23:48:52.253Z,96396.98
2018-06-04T23:53:46.805Z,96392.25
2018-06-04T23:58:41.314Z,96385.08
